Beaufort, North Carolina
Current Conditions -  °F | °C
As of 8:58 AM on Tuesday 27 Jan 2015 (Local Time) from KMRH Reporting Station
Overcast Overcast  
Wind Chill: 27°   Ceiling: 1700
Heat Index: 37°   Visibility: 10mi
Dew Point: 31°   Wind: 18mph
Humidity: 79%   Direction: 340°NNW
Pressure: 29.76"   Gusts: 23mph
Location:  34.72°N, 76.66°W
Report Text: KMRH 271358Z AUTO 34016G20KT 10SM OVC017 03/M01 A2976 RMK AO2 SLP078 T00281006 TSNO
Loading
Personal Weather Stations






























Interactive Weather Map New forecast layout! Learn more

10-Day Weather Forecast

Advertisements
Track Severe Weather on mobile